Ancho, New Mexico
Current Conditions -  °F | °C
As of 10:55 AM on Thursday 27 Nov 2014 (Local Time) from KSRR Reporting Station
Clear Clear  
Wind Chill: 57°   Ceiling: Unl
Heat Index: 57°   Visibility: 10mi
Dew Point: 19°   Wind: 6mph
Humidity: 23%   Direction: 40°NE
Pressure: 30.47"   Gusts: NA
Location:  33.6269°N, 105.978°W
Report Text: KSRR 271755Z AUTO 04005KT 10SM CLR 14/M07 A3047 RMK AO2
Loading
Personal Weather Stations






























Interactive Weather Map New forecast layout! Learn more

10-Day Weather Forecast

Advertisements
Track Severe Weather on mobile